Time;durP1;ratioP1;P1;durP2;ratioP2;P2;SDS_P1;SDS_P2;PMS_P1;PMS_P2;Temp;Humidity;BMP_temperature;BMP_pressure;BME280_temperature;BME280_humidity;BME280_pressure;Samples;Min_cycle;Max_cycle;Signal;HPM_P1;HPM_P2
2022/11/03 00:01:36;;;;;;;;;9.20;7.80;;;;;14.22;64.46;100916.41;5058462;28;45253;-61
2022/11/03 00:04:02;;;;;;;;;12.20;8.20;;;;;14.26;64.45;100927.81;5090597;27;45503;-61
2022/11/03 00:06:28;;;;;;;;;6.80;6.80;;;;;14.25;64.53;100934.41;5058595;28;45498;-61
2022/11/03 00:08:56;;;;;;;;;8.50;5.25;;;;;14.11;64.25;100906.13;5057460;28;45738;-61
2022/11/03 00:11:22;;;;;;;;;6.60;4.60;;;;;14.28;64.42;100933.09;5057064;28;45538;-60
2022/11/03 00:13:47;;;;;;;;;6.50;4.00;;;;;14.29;64.31;100932.03;5057706;28;45499;-62
2022/11/03 00:16:13;;;;;;;;;5.00;5.00;;;;;14.08;65.03;100903.81;5056495;28;45347;-60
2022/11/03 00:18:38;;;;;;;;;6.25;5.25;;;;;14.18;64.81;100908.78;5057572;28;46155;-60
2022/11/03 00:21:05;;;;;;;;;7.50;5.00;;;;;13.96;65.46;100889.97;5057858;28;45349;-62
2022/11/03 00:23:36;;;;;;;;;10.20;6.80;;;;;14.13;65.19;100917.78;5057959;28;45318;-62
2022/11/03 00:26:06;;;;;;;;;8.40;6.00;;;;;14.07;65.00;100896.63;5057987;28;45810;-62
2022/11/03 00:28:32;;;;;;;;;3.80;3.80;;;;;14.11;65.57;100906.13;5090111;27;48534;-60
2022/11/03 00:30:59;;;;;;;;;5.20;5.20;;;;;14.14;65.78;100908.41;5056032;28;45385;-62
2022/11/03 00:33:26;;;;;;;;;9.20;6.00;;;;;13.92;65.72;100872.19;5056393;28;45568;-62
2022/11/03 00:36:01;;;;;;;;;7.40;4.20;;;;;14.02;65.27;100888.19;5057750;28;45493;-61
2022/11/03 00:38:28;;;;;;;;;6.20;5.20;;;;;13.95;65.51;100868.97;5056422;28;46527;-61
2022/11/03 00:40:54;;;;;;;;;5.20;3.00;;;;;14.15;64.98;100901.00;5057223;28;45235;-61
2022/11/03 00:43:21;;;;;;;;;4.60;4.00;;;;;14.10;65.39;100893.41;5057377;28;45266;-61
2022/11/03 00:45:47;;;;;;;;;5.20;4.20;;;;;13.90;65.62;100861.41;5027610;28;45416;-60
2022/11/03 00:48:28;;;;;;;;;6.50;5.25;;;;;14.15;65.68;100892.72;5056897;28;45496;-60
2022/11/03 00:51:13;;;;;;;;;6.80;5.00;;;;;13.80;65.32;100827.97;5057342;28;45237;-60
2022/11/03 00:53:41;;;;;;;;;8.60;5.60;;;;;14.06;64.83;100868.19;5056249;28;45353;-61
2022/11/03 00:56:08;;;;;;;;;11.80;6.00;;;;;14.08;65.54;100876.22;5057440;28;45467;-61
2022/11/03 00:58:34;;;;;;;;;4.60;4.60;;;;;14.03;65.85;100878.88;5056854;28;47433;-61
2022/11/03 01:01:03;;;;;;;;;6.00;3.75;;;;;14.01;65.71;100869.94;5056394;28;45528;-61
2022/11/03 01:03:31;;;;;;;;;11.00;6.40;;;;;13.99;65.92;100856.41;5056828;28;45472;-61
2022/11/03 01:08:40;;;;;;;;;5.40;5.00;;;;;14.02;66.08;100846.81;5056019;28;45756;-60
2022/11/03 01:13:58;;;;;;;;;6.40;4.20;;;;;14.01;65.83;100842.38;5057231;28;45353;-61
2022/11/03 01:16:23;;;;;;;;;8.75;5.50;;;;;14.00;66.12;100835.16;5057163;28;45258;-61
2022/11/03 01:18:49;;;;;;;;;5.75;4.25;;;;;13.96;66.00;100837.53;5056899;28;45318;-60
2022/11/03 01:21:15;;;;;;;;;5.25;5.00;;;;;14.02;66.17;100833.84;5056672;28;45419;-61
2022/11/03 01:23:40;;;;;;;;;8.00;6.00;;;;;13.82;65.79;100789.97;5057208;28;45253;-61
2022/11/03 01:26:06;;;;;;;;;7.75;5.50;;;;;13.97;65.73;100817.16;5057386;28;45286;-60
2022/11/03 01:28:36;;;;;;;;;6.60;6.20;;;;;14.00;65.71;100813.94;5056148;28;46833;-61
2022/11/03 01:31:05;;;;;;;;;8.20;5.20;;;;;13.94;66.50;100807.41;5055232;28;45458;-61
2022/11/03 01:33:31;;;;;;;;;6.60;5.60;;;;;14.01;65.84;100817.53;5038213;28;45345;-61
2022/11/03 01:35:57;;;;;;;;;5.25;4.25;;;;;14.05;65.94;100816.00;5056985;28;45691;-60
2022/11/03 01:38:22;;;;;;;;;4.50;4.50;;;;;13.81;65.97;100763.47;5056247;28;47379;-61
2022/11/03 01:40:48;;;;;;;;;6.25;6.25;;;;;14.03;65.74;100794.16;5056611;28;45400;-61
2022/11/03 01:43:15;;;;;;;;;3.00;3.00;;;;;14.06;66.18;100790.94;5056364;28;45407;-61
2022/11/03 01:45:40;;;;;;;;;5.60;5.40;;;;;13.94;65.89;100767.97;5056732;28;45331;-61
2022/11/03 01:48:07;;;;;;;;;6.00;4.00;;;;;13.87;66.02;100754.25;5055337;28;45406;-61
2022/11/03 01:50:33;;;;;;;;;7.40;5.00;;;;;14.02;65.93;100777.81;5054836;28;45297;-61
2022/11/03 01:52:58;;;;;;;;;8.50;3.75;;;;;13.99;66.20;100778.28;5056535;28;45393;-61
2022/11/03 01:55:28;;;;;;;;;4.75;4.75;;;;;14.00;66.43;100763.41;5056622;28;45658;-61
2022/11/03 01:58:00;;;;;;;;;5.20;4.00;;;;;13.94;66.35;100760.50;5056150;28;45568;-61
2022/11/03 02:00:25;;;;;;;;;3.00;3.00;;;;;13.90;66.19;100748.28;5055157;28;45347;-61
2022/11/03 02:02:51;;;;;;;;;3.25;3.25;;;;;13.95;66.33;100755.84;5056234;28;45396;-61
2022/11/03 02:05:16;;;;;;;;;3.75;3.75;;;;;13.95;66.02;100745.66;5056275;28;45281;-61
2022/11/03 02:07:53;;;;;;;;;6.00;5.50;;;;;13.94;66.55;100743.97;5054703;28;46145;-61
2022/11/03 02:10:18;;;;;;;;;3.80;3.00;;;;;13.95;66.74;100748.44;5054914;28;45472;-62
2022/11/03 02:12:44;;;;;;;;;7.50;5.00;;;;;13.94;66.04;100737.63;5054858;28;45485;-61
2022/11/03 02:15:11;;;;;;;;;6.00;3.25;;;;;13.95;67.02;100737.38;5054724;28;45562;-61
2022/11/03 02:17:36;;;;;;;;;5.40;5.00;;;;;13.94;66.40;100737.63;5038014;28;45486;-61
2022/11/03 02:20:15;;;;;;;;;4.25;3.75;;;;;13.93;66.75;100730.41;5037727;28;45384;-61
2022/11/03 02:23:16;;;;;;;;;4.80;4.80;;;;;13.92;66.33;100721.28;5054971;28;45394;-61
2022/11/03 02:25:42;;;;;;;;;7.60;4.60;;;;;13.89;66.71;100723.69;5055067;28;45515;-61
2022/11/03 02:28:08;;;;;;;;;4.60;3.80;;;;;13.91;66.51;100718.75;5054029;28;47138;-61
2022/11/03 02:30:39;;;;;;;;;4.00;4.00;;;;;13.68;66.87;100679.81;5055752;28;45368;-61
2022/11/03 02:33:31;;;;;;;;;4.20;4.20;;;;;13.85;66.95;100703.13;5054155;28;45464;-61
2022/11/03 02:36:10;;;;;;;;;6.60;5.00;;;;;13.83;66.63;100695.94;5054804;28;45415;-61
2022/11/03 02:38:40;;;;;;;;;4.20;4.20;;;;;13.74;66.69;100680.81;5054412;28;46553;-61
2022/11/03 02:41:06;;;;;;;;;3.00;3.00;;;;;13.80;66.99;100690.91;5037497;28;45391;-62
2022/11/03 02:43:32;;;;;;;;;3.75;3.00;;;;;13.78;67.20;100689.47;5054488;28;45282;-61
2022/11/03 02:45:57;;;;;;;;;4.00;4.00;;;;;13.84;66.88;100683.00;5055903;28;45481;-61
2022/11/03 02:48:23;;;;;;;;;3.00;3.00;;;;;13.87;66.93;100681.69;5055623;28;45510;-61
2022/11/03 02:50:48;;;;;;;;;2.00;2.00;;;;;13.83;66.83;100673.06;5054251;28;45366;-61
2022/11/03 02:53:14;;;;;;;;;5.50;3.50;;;;;13.81;67.12;100669.66;5055198;28;45322;-61
2022/11/03 02:56:07;;;;;;;;;4.25;4.25;;;;;13.80;67.24;100656.97;5055793;28;45365;-61
2022/11/03 02:58:44;;;;;;;;;4.80;4.60;;;;;13.83;67.20;100659.25;5051995;28;45653;-61
2022/11/03 03:01:31;;;;;;;;;5.20;4.00;;;;;13.83;66.77;100649.06;5055165;28;45330;-61
2022/11/03 03:04:02;;;;;;;;;4.00;2.60;;;;;13.78;66.93;100639.81;5024052;28;46708;-62
2022/11/03 03:06:34;;;;;;;;;6.80;4.40;;;;;13.80;66.65;100627.47;5017679;28;45789;-61
2022/11/03 03:09:02;;;;;;;;;8.00;3.40;;;;;13.76;66.68;100606.94;5033572;28;46029;-61
2022/11/03 03:11:37;;;;;;;;;3.40;3.40;;;;;13.85;66.81;100609.34;5033709;28;45420;-61
2022/11/03 03:14:14;;;;;;;;;4.00;4.00;;;;;13.80;67.18;100597.13;5033989;28;45501;-61
2022/11/03 03:17:03;;;;;;;;;7.00;4.00;;;;;13.79;66.62;100589.09;5017809;28;45912;-61
2022/11/03 03:19:28;;;;;;;;;5.60;4.20;;;;;13.70;67.00;100591.34;5066985;28;46188;-61
2022/11/03 03:21:54;;;;;;;;;7.00;4.25;;;;;13.70;67.24;100591.34;5035300;28;45335;-60
2022/11/03 03:24:54;;;;;;;;;7.50;4.75;;;;;13.69;67.56;100587.75;5033066;28;45426;-59
2022/11/03 03:27:21;;;;;;;;;6.60;5.00;;;;;13.72;67.11;100574.56;5020589;28;45406;-61
2022/11/03 03:29:49;;;;;;;;;5.80;5.80;;;;;13.72;67.30;100569.88;5018943;28;46180;-61
2022/11/03 03:32:17;;;;;;;;;4.40;4.40;;;;;13.71;66.92;100568.19;5036681;28;45402;-61
2022/11/03 03:34:44;;;;;;;;;10.20;5.80;;;;;13.72;67.44;100546.97;5036924;28;45420;-61
2022/11/03 03:37:09;;;;;;;;;3.25;2.25;;;;;13.69;67.59;100534.50;5055276;28;45506;-61
2022/11/03 03:39:36;;;;;;;;;5.00;5.00;;;;;13.68;67.50;100532.81;5053510;28;45652;-61
2022/11/03 03:42:02;;;;;;;;;4.60;3.00;;;;;13.66;67.25;100537.75;5036922;28;45450;-61
2022/11/03 03:44:27;;;;;;;;;5.00;3.75;;;;;13.61;66.99;100530.16;5036485;28;45440;-61
2022/11/03 03:47:00;;;;;;;;;5.25;4.50;;;;;13.73;67.49;100530.19;5055160;28;45195;-61
2022/11/03 03:49:25;;;;;;;;;4.20;3.00;;;;;13.60;67.06;100524.91;5052723;28;46394;-61
2022/11/03 03:51:51;;;;;;;;;5.50;2.25;;;;;13.59;66.89;100513.03;5053661;28;45437;-61
2022/11/03 03:54:16;;;;;;;;;6.50;4.00;;;;;13.71;67.43;100534.28;5053280;28;45483;-61
2022/11/03 03:56:47;;;;;;;;;5.25;3.50;;;;;13.46;66.88;100499.47;5053538;28;45405;-61
2022/11/03 03:59:13;;;;;;;;;5.40;4.40;;;;;13.49;67.42;100510.00;5053124;28;46874;-61
2022/11/03 04:01:39;;;;;;;;;3.00;3.00;;;;;13.72;67.25;100549.75;5054301;28;45729;-61
2022/11/03 04:04:04;;;;;;;;;6.75;5.75;;;;;13.75;66.75;100549.25;5054477;28;45330;-61
2022/11/03 04:06:30;;;;;;;;;4.00;4.00;;;;;13.72;67.28;100538.72;5054931;28;45405;-61
2022/11/03 04:08:55;;;;;;;;;3.50;3.50;;;;;13.72;66.80;100534.00;5054217;28;46538;-61
2022/11/03 04:22:16;;;;;;;;;2.80;2.80;;;;;13.71;66.72;100535.09;5054505;28;45425;-63
2022/11/03 04:24:46;;;;;;;;;5.00;5.00;;;;;13.65;67.10;100506.56;5054236;28;45373;-63
2022/11/03 04:27:17;;;;;;;;;6.40;5.20;;;;;13.30;66.99;100446.69;5053440;28;45549;-62
2022/11/03 04:29:43;;;;;;;;;5.00;5.00;;;;;13.66;66.82;100499.16;5053529;28;45428;-63
2022/11/03 04:32:15;;;;;;;;;5.50;5.00;;;;;13.66;67.10;100490.88;5053840;28;45337;-62
2022/11/03 04:34:41;;;;;;;;;3.40;3.40;;;;;13.64;66.67;100487.50;5054575;28;45346;-62
2022/11/03 04:37:11;;;;;;;;;6.00;5.50;;;;;13.64;67.32;100480.06;5058078;28;45595;-62
2022/11/03 04:39:36;;;;;;;;;8.80;3.20;;;;;13.61;67.16;100479.72;5057393;28;46369;-63
2022/11/03 04:42:09;;;;;;;;;3.25;3.25;;;;;13.60;67.06;100476.09;5057492;28;45362;-62
2022/11/03 04:44:34;;;;;;;;;5.80;5.80;;;;;13.58;67.17;100470.00;5039669;28;45332;-61
2022/11/03 04:47:00;;;;;;;;;7.50;6.75;;;;;13.59;66.88;100470.81;5057460;28;45574;-62
2022/11/03 04:49:25;;;;;;;;;5.25;4.00;;;;;13.59;67.08;100459.78;5055750;28;46109;-62
2022/11/03 04:51:51;;;;;;;;;4.00;4.00;;;;;13.53;66.85;100456.94;5057325;28;45397;-62
2022/11/03 04:54:21;;;;;;;;;4.75;4.50;;;;;13.59;67.59;100460.63;5055926;28;45516;-62
2022/11/03 04:56:47;;;;;;;;;3.40;3.40;;;;;13.60;66.82;100456.78;5039238;28;45527;-65
2022/11/03 04:59:13;;;;;;;;;3.00;3.00;;;;;12.82;67.12;100330.06;5057100;28;45381;-62
2022/11/03 05:01:38;;;;;;;;;5.00;4.00;;;;;13.36;66.87;100411.81;5056031;28;45485;-61
2022/11/03 05:04:09;;;;;;;;;6.75;4.00;;;;;13.50;66.83;100440.03;5055021;28;45489;-62
2022/11/03 05:06:34;;;;;;;;;5.60;5.20;;;;;13.48;66.79;100425.63;5057743;28;45588;-62
2022/11/03 05:09:06;;;;;;;;;5.25;3.75;;;;;13.53;66.88;100423.00;5038641;28;45584;-62
2022/11/03 05:11:31;;;;;;;;;5.00;4.60;;;;;13.35;67.16;100382.56;5055894;28;45864;-62
2022/11/03 05:14:14;;;;;;;;;7.00;5.00;;;;;13.51;66.98;100406.69;5057047;28;45466;-62
2022/11/03 05:16:40;;;;;;;;;3.40;3.40;;;;;13.51;67.23;100405.84;5057531;28;45392;-62
2022/11/03 05:19:27;;;;;;;;;6.50;3.50;;;;;13.42;67.10;100399.84;5055141;28;46609;-62
2022/11/03 05:21:53;;;;;;;;;5.20;4.60;;;;;13.49;67.41;100411.59;5040311;28;45366;-62
2022/11/03 05:24:20;;;;;;;;;5.50;5.50;;;;;13.50;67.03;100402.25;5056937;28;45319;-61
2022/11/03 05:26:45;;;;;;;;;6.60;5.00;;;;;13.48;66.73;100392.53;5055727;28;45309;-61
2022/11/03 05:29:21;;;;;;;;;10.50;7.00;;;;;13.15;66.92;100331.41;5055166;28;46147;-62
2022/11/03 05:31:47;;;;;;;;;6.00;4.00;;;;;13.38;66.71;100358.13;5054894;28;45493;-62
2022/11/03 05:34:27;;;;;;;;;4.50;4.00;;;;;13.20;66.88;100334.28;5056457;28;45591;-62
2022/11/03 05:36:52;;;;;;;;;6.60;5.00;;;;;13.44;67.13;100372.03;5055927;28;45377;-62
2022/11/03 05:39:37;;;;;;;;;5.25;3.75;;;;;13.46;67.27;100370.75;5056683;28;46121;-62
2022/11/03 05:42:21;;;;;;;;;6.00;4.00;;;;;13.41;67.56;100365.09;5055281;28;45233;-62
2022/11/03 05:44:47;;;;;;;;;6.60;5.60;;;;;13.39;67.57;100351.53;5055554;28;45417;-62
2022/11/03 05:47:21;;;;;;;;;4.50;3.75;;;;;13.37;67.00;100325.28;5055437;28;45390;-62
2022/11/03 05:49:47;;;;;;;;;4.40;3.80;;;;;13.39;67.26;100323.97;5055476;28;47141;-61
2022/11/03 05:52:18;;;;;;;;;4.60;3.80;;;;;13.37;67.38;100317.00;5056691;28;46000;-61
2022/11/03 05:54:43;;;;;;;;;7.40;7.40;;;;;13.37;67.73;100320.63;5038383;28;45438;-61
2022/11/03 05:57:15;;;;;;;;;7.75;5.25;;;;;13.37;67.33;100322.53;5038654;28;45387;-60
2022/11/03 05:59:42;;;;;;;;;4.40;4.00;;;;;13.31;67.76;100304.19;5038457;28;46602;-63
2022/11/03 06:02:27;;;;;;;;;6.20;5.00;;;;;13.33;67.59;100308.38;5055183;28;45666;-61
2022/11/03 06:04:53;;;;;;;;;7.20;4.80;;;;;13.33;67.68;100302.88;5055378;28;45452;-61
2022/11/03 06:07:21;;;;;;;;;6.00;4.00;;;;;13.17;67.39;100282.41;5056904;28;45403;-61
2022/11/03 06:09:47;;;;;;;;;5.40;5.40;;;;;13.29;67.53;100294.25;5056109;28;46293;-60
2022/11/03 06:12:14;;;;;;;;;7.00;6.75;;;;;13.35;67.71;100295.19;5056461;28;45347;-60
2022/11/03 06:14:39;;;;;;;;;5.60;5.00;;;;;13.17;67.59;100262.28;5054985;28;45379;-62
2022/11/03 06:17:06;;;;;;;;;5.25;3.00;;;;;13.35;67.32;100291.63;5056433;28;45404;-61
2022/11/03 06:19:37;;;;;;;;;7.80;4.80;;;;;13.21;67.64;100272.59;5054588;28;46188;-61
2022/11/03 06:22:12;;;;;;;;;3.80;3.80;;;;;13.09;67.29;100245.06;5054976;28;45302;-60
2022/11/03 06:24:38;;;;;;;;;6.00;6.00;;;;;13.33;67.52;100275.31;5054858;28;45731;-61
2022/11/03 06:27:03;;;;;;;;;4.00;4.00;;;;;12.94;67.31;100211.63;5056404;28;45618;-61
2022/11/03 06:29:29;;;;;;;;;5.75;5.00;;;;;13.32;67.57;100268.13;5055727;28;46571;-61
2022/11/03 06:31:56;;;;;;;;;6.00;5.40;;;;;13.30;67.76;100256.53;5055613;28;45314;-61
2022/11/03 06:34:31;;;;;;;;;10.20;5.60;;;;;13.01;67.64;100220.59;5055590;28;45351;-60
2022/11/03 06:36:57;;;;;;;;;7.00;7.00;;;;;13.26;68.08;100260.81;5056564;28;45423;-61
2022/11/03 06:39:23;;;;;;;;;5.40;5.40;;;;;13.24;67.76;100260.25;5055607;28;46849;-60
2022/11/03 06:41:48;;;;;;;;;10.50;9.25;;;;;13.04;67.87;100211.03;5055628;28;45355;-62
2022/11/03 06:44:24;;;;;;;;;7.00;5.25;;;;;13.24;67.51;100241.78;5056083;28;45308;-61
2022/11/03 06:46:51;;;;;;;;;11.80;6.60;;;;;13.06;67.72;100203.34;5038011;28;45435;-61
2022/11/03 06:49:31;;;;;;;;;8.20;7.00;;;;;13.24;67.58;100241.78;5054509;28;46970;-63
2022/11/03 06:51:57;;;;;;;;;8.60;5.00;;;;;13.26;67.53;100227.75;5054589;28;45412;-61
2022/11/03 06:54:23;;;;;;;;;7.00;5.80;;;;;13.25;67.86;100224.16;5054010;28;45484;-62
2022/11/03 06:56:49;;;;;;;;;8.00;5.50;;;;;13.23;67.44;100226.31;5055885;28;45670;-62
2022/11/03 06:59:14;;;;;;;;;5.50;5.50;;;;;13.24;67.56;100229.94;5053401;28;47620;-62
2022/11/03 07:01:40;;;;;;;;;6.75;6.00;;;;;13.25;67.59;100218.63;5055590;28;45528;-62
2022/11/03 07:04:13;;;;;;;;;6.00;5.00;;;;;13.20;67.56;100192.91;5054082;28;45482;-61
2022/11/03 07:06:39;;;;;;;;;8.00;6.80;;;;;13.23;66.86;100190.50;5054441;28;45393;-61
2022/11/03 07:09:06;;;;;;;;;6.00;6.00;;;;;13.29;66.87;100191.47;5037016;28;45441;-61
2022/11/03 07:11:45;;;;;;;;;6.40;3.80;;;;;13.29;67.37;100191.47;5055704;28;45361;-62
2022/11/03 07:14:24;;;;;;;;;4.60;3.20;;;;;13.10;66.81;100149.44;5055289;28;45319;-61
2022/11/03 07:17:02;;;;;;;;;6.00;6.00;;;;;13.27;66.83;100177.91;5054321;28;45390;-62
2022/11/03 07:19:51;;;;;;;;;5.00;5.00;;;;;13.24;66.87;100167.38;5053813;28;46430;-61
2022/11/03 07:22:24;;;;;;;;;6.40;4.80;;;;;13.14;66.76;100145.94;5054974;28;45492;-62
2022/11/03 07:24:54;;;;;;;;;4.00;4.00;;;;;13.26;66.66;100167.97;5054973;28;45294;-61
2022/11/03 07:27:22;;;;;;;;;4.00;4.00;;;;;13.09;66.69;100123.81;5031777;28;45642;-62
2022/11/03 07:29:48;;;;;;;;;3.60;3.60;;;;;12.69;66.43;100064.03;5045868;28;45529;-61
2022/11/03 07:32:15;;;;;;;;;6.40;4.00;;;;;13.31;66.47;100150.72;5053996;28;45511;-62
2022/11/03 07:34:41;;;;;;;;;6.20;4.40;;;;;13.31;66.18;100139.69;5036889;28;45366;-61
2022/11/03 07:37:09;;;;;;;;;5.50;5.50;;;;;13.25;66.73;100130.47;5054908;28;45293;-61
2022/11/03 07:39:36;;;;;;;;;4.80;4.80;;;;;13.27;66.03;100133.81;5036785;28;46228;-61
2022/11/03 07:42:13;;;;;;;;;5.00;3.80;;;;;13.11;66.60;100099.63;5052891;28;45362;-62
2022/11/03 07:44:38;;;;;;;;;5.40;3.80;;;;;12.82;65.76;100041.72;5053551;28;45402;-61
2022/11/03 07:47:05;;;;;;;;;5.00;4.25;;;;;13.29;66.29;100134.41;5036717;28;45740;-61
2022/11/03 07:49:30;;;;;;;;;6.40;3.00;;;;;13.34;66.24;100127.34;5053367;28;45463;-61
2022/11/03 07:51:56;;;;;;;;;3.00;3.00;;;;;13.31;65.95;100119.53;5053583;28;45333;-61
2022/11/03 07:54:24;;;;;;;;;3.75;3.75;;;;;13.32;66.01;100119.31;5036055;28;45520;-61
2022/11/03 07:56:58;;;;;;;;;3.00;3.00;;;;;13.32;65.71;100130.31;5053745;28;45520;-62
2022/11/03 07:59:36;;;;;;;;;6.00;4.00;;;;;13.08;65.63;100075.28;5052982;28;45606;-62
2022/11/03 08:02:01;;;;;;;;;3.80;3.80;;;;;13.35;65.74;100117.97;5053127;28;45463;-62
2022/11/03 08:04:29;;;;;;;;;10.00;6.50;;;;;13.35;65.58;100110.53;5054501;28;45536;-63
2022/11/03 08:06:55;;;;;;;;;5.60;4.60;;;;;13.31;65.22;100100.25;5054884;28;45278;-62
2022/11/03 08:09:20;;;;;;;;;3.75;3.75;;;;;13.33;65.22;100098.94;5055280;28;46289;-62
2022/11/03 08:11:46;;;;;;;;;6.50;5.25;;;;;13.26;65.43;100081.69;5056875;28;45343;-62
2022/11/03 08:14:11;;;;;;;;;6.50;5.00;;;;;13.44;65.34;100104.66;5056452;28;45420;-62
2022/11/03 08:16:37;;;;;;;;;8.00;4.50;;;;;13.26;65.18;100055.00;5058491;28;45615;-62
2022/11/03 08:19:03;;;;;;;;;6.50;4.75;;;;;13.31;64.68;100065.28;5057605;28;45634;-62
2022/11/03 08:21:28;;;;;;;;;6.25;4.00;;;;;13.55;64.54;100090.81;5056481;28;45405;-63
2022/11/03 08:23:54;;;;;;;;;4.00;4.00;;;;;13.59;64.56;100093.91;5056994;28;45306;-63
2022/11/03 08:26:19;;;;;;;;;3.50;3.50;;;;;13.45;64.55;100057.50;5057744;28;45427;-63
2022/11/03 08:28:45;;;;;;;;;4.25;4.25;;;;;13.64;64.16;100087.66;5057808;28;46226;-63
2022/11/03 08:31:10;;;;;;;;;5.00;4.00;;;;;13.66;64.32;100082.75;5057201;28;45445;-63
2022/11/03 08:33:36;;;;;;;;;4.00;4.00;;;;;13.71;64.62;100082.00;5056544;28;45462;-62
2022/11/03 08:36:02;;;;;;;;;10.25;9.75;;;;;13.65;64.03;100070.88;5029392;28;45677;-62
2022/11/03 08:38:27;;;;;;;;;12.60;11.20;;;;;13.77;63.91;100072.72;5057599;28;45410;-63
2022/11/03 08:40:54;;;;;;;;;6.00;5.00;;;;;13.80;63.78;100080.50;5057669;28;45403;-61
2022/11/03 08:43:19;;;;;;;;;2.80;2.80;;;;;13.61;63.59;100036.59;5056553;28;45334;-60
2022/11/03 08:45:45;;;;;;;;;5.00;5.00;;;;;13.83;64.05;100069.78;5057889;28;45448;-60
2022/11/03 08:48:11;;;;;;;;;4.50;3.50;;;;;13.73;63.52;100044.81;5022941;28;47474;-65
2022/11/03 08:50:37;;;;;;;;;5.20;3.60;;;;;13.86;63.86;100054.66;5050935;28;45428;-60
2022/11/03 08:53:02;;;;;;;;;5.00;5.00;;;;;13.87;63.46;100037.03;5049571;28;45794;-58
2022/11/03 08:55:28;;;;;;;;;5.75;5.00;;;;;13.93;63.49;100033.25;5045171;28;45902;-60
2022/11/03 08:57:55;;;;;;;;;3.20;3.00;;;;;13.48;63.76;99943.19;5048727;28;46758;-59
2022/11/03 09:00:21;;;;;;;;;1.50;1.50;;;;;13.96;63.40;100013.47;5051784;28;45408;-62
2022/11/03 09:02:47;;;;;;;;;5.00;5.00;;;;;13.97;63.16;100017.03;5051736;28;45443;-60
2022/11/03 09:05:13;;;;;;;;;5.00;4.50;;;;;13.96;63.46;100018.97;5049354;28;45489;-59
2022/11/03 09:07:39;;;;;;;;;8.50;5.25;;;;;13.97;63.43;100000.50;5050039;28;45584;-59
2022/11/03 09:10:07;;;;;;;;;5.80;4.20;;;;;13.94;63.44;100009.28;5050712;28;45397;-59
2022/11/03 09:12:33;;;;;;;;;9.60;4.80;;;;;13.91;63.32;100002.34;5051797;28;45528;-59
2022/11/03 09:14:58;;;;;;;;;6.00;6.00;;;;;13.74;63.52;99969.25;5052253;28;45800;-60
2022/11/03 09:17:24;;;;;;;;;4.25;4.25;;;;;13.96;63.21;99996.91;5048261;28;45619;-60
2022/11/03 09:19:50;;;;;;;;;3.50;3.00;;;;;13.92;63.38;99981.09;5051028;28;46010;-60
2022/11/03 09:22:16;;;;;;;;;4.50;2.50;;;;;13.95;62.95;99975.94;5031373;28;45743;-59
2022/11/03 09:24:42;;;;;;;;;4.25;3.75;;;;;13.99;62.81;99970.75;5050684;28;45435;-57
2022/11/03 09:27:08;;;;;;;;;7.25;6.00;;;;;14.00;62.79;99961.38;5050995;28;45679;-59
2022/11/03 09:29:34;;;;;;;;;7.80;4.80;;;;;13.98;63.08;99959.94;5053357;28;47008;-56
2022/11/03 09:32:00;;;;;;;;;6.00;5.00;;;;;13.99;63.11;99953.34;5054247;28;45299;-58
2022/11/03 09:34:28;;;;;;;;;6.20;4.00;;;;;13.93;63.14;99956.03;5054458;28;45589;-59
2022/11/03 09:36:53;;;;;;;;;6.20;5.00;;;;;13.95;63.15;99950.25;5055264;28;46775;-54
2022/11/03 09:39:19;;;;;;;;;5.00;4.00;;;;;14.00;63.10;99941.22;5001042;28;46160;-57
2022/11/03 09:41:44;;;;;;;;;4.25;3.00;;;;;14.00;62.79;99942.06;5048431;28;45508;-58
2022/11/03 09:44:10;;;;;;;;;4.00;4.00;;;;;13.97;62.58;99942.56;5048783;28;45567;-58
2022/11/03 09:46:36;;;;;;;;;4.80;3.60;;;;;14.04;62.49;99931.34;5047850;28;46640;-56
2022/11/03 09:49:02;;;;;;;;;5.00;4.80;;;;;13.97;63.16;99917.72;5036745;28;45480;-59
2022/11/03 09:51:28;;;;;;;;;4.40;4.40;;;;;13.73;62.11;99842.66;5049752;28;45527;-60
2022/11/03 09:54:00;;;;;;;;;5.20;4.80;;;;;14.21;62.50;99918.31;5048562;28;45898;-60
2022/11/03 09:56:26;;;;;;;;;4.40;4.40;;;;;14.02;62.09;99884.69;5033598;28;45479;-59
2022/11/03 09:58:52;;;;;;;;;4.75;4.00;;;;;14.14;61.84;99892.84;5049984;28;45445;-59
2022/11/03 10:01:18;;;;;;;;;11.50;5.25;;;;;14.12;61.92;99880.38;5051221;28;45600;-65
2022/11/03 10:03:43;;;;;;;;;5.00;5.00;;;;;14.31;61.95;99903.00;5051983;28;45753;-60
2022/11/03 10:06:10;;;;;;;;;4.25;4.25;;;;;14.37;61.44;99897.25;5051078;28;45714;-59
2022/11/03 10:08:36;;;;;;;;;7.00;4.20;;;;;14.41;61.53;99886.53;5050239;28;45413;-59
2022/11/03 10:11:04;;;;;;;;;5.20;4.40;;;;;14.50;60.97;99896.03;5049973;28;45547;-58
2022/11/03 10:13:35;;;;;;;;;7.20;4.00;;;;;14.49;60.99;99888.00;5050929;28;45585;-58
2022/11/03 10:16:02;;;;;;;;;3.00;3.00;;;;;14.42;61.66;99888.22;5058138;28;45644;-58
2022/11/03 10:18:27;;;;;;;;;5.20;4.60;;;;;14.46;61.42;99883.84;5039180;28;45378;-59
2022/11/03 10:20:54;;;;;;;;;7.50;5.25;;;;;14.49;61.29;99877.81;5028923;28;45365;-58
2022/11/03 10:23:19;;;;;;;;;5.20;4.00;;;;;14.48;61.15;99876.13;5045798;28;45579;-59
2022/11/03 10:25:46;;;;;;;;;9.75;4.25;;;;;14.48;60.96;99853.22;5030314;28;46373;-60
2022/11/03 10:28:17;;;;;;;;;4.80;4.20;;;;;14.55;61.29;99861.28;5031101;28;45592;-60
2022/11/03 10:31:06;;;;;;;;;6.20;5.20;;;;;14.57;60.98;99851.63;5048966;28;45412;-59
2022/11/03 10:33:36;;;;;;;;;3.00;3.00;;;;;14.65;60.78;99853.09;5048275;28;45878;-62
2022/11/03 10:36:25;;;;;;;;;4.00;3.80;;;;;14.78;60.21;99857.38;5049808;28;46860;-58
2022/11/03 10:38:52;;;;;;;;;4.00;4.00;;;;;14.89;60.32;99852.81;5042502;28;45818;-57
2022/11/03 10:41:28;;;;;;;;;4.20;4.20;;;;;14.93;60.35;99853.13;5014270;28;45869;-59
2022/11/03 10:44:12;;;;;;;;;4.40;4.40;;;;;14.60;59.87;99784.00;4994566;28;45974;-58
2022/11/03 10:46:39;;;;;;;;;3.00;3.00;;;;;14.99;59.80;99854.84;5048667;28;47159;-61
2022/11/03 10:49:11;;;;;;;;;4.80;3.00;;;;;15.06;59.52;99838.03;5037204;28;45628;-59
2022/11/03 10:51:37;;;;;;;;;3.60;3.60;;;;;15.11;59.35;99844.41;5048589;28;45809;-58
2022/11/03 10:54:04;;;;;;;;;3.75;3.75;;;;;15.14;59.26;99832.00;5049180;28;45444;-59
2022/11/03 10:56:33;;;;;;;;;4.20;4.00;;;;;15.15;59.07;99830.88;5031579;28;45829;-60
2022/11/03 10:58:59;;;;;;;;;5.20;3.60;;;;;15.32;59.02;99825.22;5026188;28;45618;-59
2022/11/03 11:01:25;;;;;;;;;4.20;2.60;;;;;15.51;58.29;99811.78;5032415;28;45449;-56
2022/11/03 11:03:51;;;;;;;;;4.00;3.00;;;;;15.77;57.73;99811.09;5048776;28;45563;-58
2022/11/03 11:06:28;;;;;;;;;4.50;4.00;;;;;15.63;57.89;99788.63;5046661;28;45853;-57
2022/11/03 11:08:56;;;;;;;;;5.00;4.00;;;;;15.74;57.70;99809.69;5050100;28;45458;-60
2022/11/03 11:11:22;;;;;;;;;2.60;2.60;;;;;15.45;58.50;99783.28;5047775;28;45736;-61
2022/11/03 11:14:26;;;;;;;;;4.60;3.80;;;;;15.63;58.16;99814.34;5048695;28;45719;-59
2022/11/03 11:16:54;;;;;;;;;5.00;5.00;;;;;15.58;58.54;99806.84;5048225;28;45448;-58
2022/11/03 11:19:21;;;;;;;;;3.40;3.40;;;;;15.50;59.08;99801.84;5048093;28;45345;-59
2022/11/03 11:21:48;;;;;;;;;4.00;3.00;;;;;15.51;58.64;99799.88;5031934;28;45467;-59
2022/11/03 11:24:34;;;;;;;;;3.80;3.80;;;;;15.46;58.62;99781.34;5050042;28;45782;-60
2022/11/03 11:27:01;;;;;;;;;5.20;4.00;;;;;15.46;59.24;99781.34;5047714;28;46039;-60
2022/11/03 11:29:37;;;;;;;;;5.00;2.00;;;;;15.41;59.00;99795.13;5049934;28;45473;-60
2022/11/03 11:32:41;;;;;;;;;3.60;3.60;;;;;15.41;59.48;99807.03;5048422;28;45539;-60
2022/11/03 11:35:27;;;;;;;;;4.60;4.20;;;;;15.38;60.77;99792.91;5048357;28;45386;-58
2022/11/03 11:37:54;;;;;;;;;4.80;4.80;;;;;15.37;61.97;99791.25;5007037;28;46432;-61
2022/11/03 11:40:22;;;;;;;;;4.80;3.80;;;;;15.42;62.08;99775.53;5048390;28;45426;-63
2022/11/03 11:43:00;;;;;;;;;4.80;4.80;;;;;15.47;62.21;99780.22;5048831;28;45526;-65
2022/11/03 11:46:03;;;;;;;;;4.40;4.40;;;;;15.47;62.82;99771.13;5049800;28;45607;-63
2022/11/03 11:48:29;;;;;;;;;4.20;4.20;;;;;15.45;62.91;99765.84;5006014;28;46169;-63
2022/11/03 11:50:56;;;;;;;;;5.00;3.75;;;;;15.57;62.87;99758.19;5049659;28;45380;-61
2022/11/03 11:53:22;;;;;;;;;5.20;4.40;;;;;15.61;62.00;99746.56;5048431;28;45812;-61